createdAt,value
2017-12-10T00:00:37.075Z,-1.80
2017-12-10T00:03:05.221Z,-1.80
2017-12-10T00:05:33.373Z,-1.80
2017-12-10T00:08:02.352Z,-1.80
2017-12-10T00:10:30.554Z,-1.80
2017-12-10T00:12:59.354Z,-1.80
2017-12-10T00:15:27.484Z,-1.80
2017-12-10T00:17:56.463Z,-1.80
2017-12-10T00:20:24.626Z,-1.80
2017-12-10T00:22:52.762Z,-1.90
2017-12-10T00:25:21.376Z,-1.90
2017-12-10T00:27:49.649Z,-1.90
2017-12-10T00:30:17.791Z,-2.00
2017-12-10T00:32:45.938Z,-2.00
2017-12-10T00:35:14.091Z,-2.00
2017-12-10T00:37:42.279Z,-2.10
2017-12-10T00:40:11.171Z,-2.10
2017-12-10T00:42:40.608Z,-2.10
2017-12-10T00:45:08.750Z,-2.10
2017-12-10T00:47:38.868Z,-2.10
2017-12-10T00:50:08.021Z,-2.10
2017-12-10T00:52:36.198Z,-2.10
2017-12-10T00:55:05.044Z,-2.10
2017-12-10T00:57:34.027Z,-2.10
2017-12-10T01:00:02.185Z,-2.10
2017-12-10T01:02:30.309Z,-2.00
2017-12-10T01:04:59.246Z,-2.00
2017-12-10T01:07:27.395Z,-2.00
2017-12-10T01:09:55.522Z,-2.00
2017-12-10T01:12:25.582Z,-2.00
2017-12-10T01:14:53.961Z,-2.00
2017-12-10T01:17:22.082Z,-1.90
2017-12-10T01:19:51.230Z,-1.80
2017-12-10T01:22:19.435Z,-1.80
2017-12-10T01:24:47.567Z,-1.70
2017-12-10T01:27:19.684Z,-1.70
2017-12-10T01:29:47.820Z,-1.60
2017-12-10T01:32:16.813Z,-1.60
2017-12-10T01:34:44.935Z,-1.60
2017-12-10T01:37:14.031Z,-1.60
2017-12-10T01:39:42.173Z,-1.60
2017-12-10T01:42:10.307Z,-1.70
2017-12-10T01:44:38.455Z,-1.70
2017-12-10T01:47:07.495Z,-1.70
2017-12-10T01:49:35.609Z,-1.70
2017-12-10T01:52:03.822Z,-1.70
2017-12-10T01:54:31.954Z,-1.70
2017-12-10T01:57:00.074Z,-1.70
2017-12-10T01:59:28.207Z,-1.80
2017-12-10T02:01:57.379Z,-1.90
2017-12-10T02:04:25.547Z,-1.90
2017-12-10T02:06:53.747Z,-1.90
2017-12-10T02:09:21.870Z,-1.90
2017-12-10T02:11:50.106Z,-1.90
2017-12-10T02:14:18.248Z,-1.90
2017-12-10T02:16:46.440Z,-2.00
2017-12-10T02:19:16.608Z,-2.00
2017-12-10T02:21:45.212Z,-1.90
2017-12-10T02:24:14.131Z,-1.90
2017-12-10T02:26:42.965Z,-2.00
2017-12-10T02:29:11.045Z,-2.00
2017-12-10T02:31:39.176Z,-2.10
2017-12-10T02:34:07.315Z,-2.00
2017-12-10T02:36:35.511Z,-2.00
2017-12-10T02:39:04.052Z,-2.10
2017-12-10T02:41:32.251Z,-2.10
2017-12-10T02:44:00.367Z,-2.20
2017-12-10T02:46:28.627Z,-2.20
2017-12-10T02:48:56.749Z,-2.20
2017-12-10T02:51:28.074Z,-2.20
2017-12-10T02:53:57.047Z,-2.20
2017-12-10T02:56:25.215Z,-2.20
2017-12-10T02:58:53.323Z,-2.20
2017-12-10T03:01:21.443Z,-2.20
2017-12-10T03:03:49.562Z,-2.20
2017-12-10T03:06:17.713Z,-2.30
2017-12-10T03:08:45.846Z,-2.30
2017-12-10T03:11:13.977Z,-2.30
2017-12-10T03:13:42.095Z,-2.30
2017-12-10T03:16:10.643Z,-2.40
2017-12-10T03:18:38.773Z,-2.40
2017-12-10T03:21:06.897Z,-2.30
2017-12-10T03:23:35.181Z,-2.20
2017-12-10T03:26:03.325Z,-2.10
2017-12-10T03:28:31.443Z,-2.00
2017-12-10T03:30:59.580Z,-1.90
2017-12-10T03:33:27.731Z,-1.90
2017-12-10T03:35:55.873Z,-1.70
2017-12-10T03:38:24.010Z,-1.70
2017-12-10T03:40:53.445Z,-1.50
2017-12-10T03:43:21.568Z,-1.50
2017-12-10T03:45:49.734Z,-1.40
2017-12-10T03:48:19.504Z,-1.20
2017-12-10T03:50:47.643Z,-1.20
2017-12-10T03:53:16.353Z,-1.20
2017-12-10T03:55:44.481Z,-1.20
2017-12-10T03:58:13.374Z,-1.10
2017-12-10T04:00:41.490Z,-1.10
2017-12-10T04:03:10.572Z,-1.10
2017-12-10T04:05:38.715Z,-1.10
2017-12-10T04:08:06.947Z,-1.00
2017-12-10T04:10:35.820Z,-1.10
2017-12-10T04:13:03.943Z,-1.10
2017-12-10T04:15:32.838Z,-0.90
2017-12-10T04:18:01.806Z,-0.90
2017-12-10T04:20:29.935Z,-0.90
2017-12-10T04:22:58.082Z,-0.90
2017-12-10T04:25:26.966Z,-0.90
2017-12-10T04:27:55.931Z,-0.90
2017-12-10T04:30:24.072Z,-0.90
2017-12-10T04:32:52.521Z,-0.80
2017-12-10T04:35:20.648Z,-0.80
2017-12-10T04:37:49.078Z,-0.80
2017-12-10T04:40:17.234Z,-0.90
2017-12-10T04:42:46.130Z,-0.90
2017-12-10T04:45:15.043Z,-0.90
2017-12-10T04:47:43.193Z,-1.00
2017-12-10T04:50:11.303Z,-0.90
2017-12-10T04:52:39.648Z,-0.90
2017-12-10T04:55:07.757Z,-0.80
2017-12-10T04:57:38.707Z,-0.80
2017-12-10T05:00:07.728Z,-0.80
2017-12-10T05:02:35.853Z,-0.70
2017-12-10T05:05:04.001Z,-0.70
2017-12-10T05:07:32.265Z,-0.80
2017-12-10T05:10:00.427Z,-0.80
2017-12-10T05:12:28.640Z,-0.70
2017-12-10T05:14:56.794Z,-0.70
2017-12-10T05:17:24.994Z,-0.60
2017-12-10T05:19:53.435Z,-0.60
2017-12-10T05:22:22.232Z,-0.60
2017-12-10T05:24:50.393Z,-0.60
2017-12-10T05:27:24.946Z,-0.50
2017-12-10T05:29:53.410Z,-0.50
2017-12-10T05:32:22.210Z,-0.50
2017-12-10T05:34:51.140Z,-0.40
2017-12-10T05:37:21.725Z,-0.40
2017-12-10T05:39:49.878Z,-0.30
2017-12-10T05:42:18.033Z,-0.20
2017-12-10T05:44:46.228Z,-0.20
2017-12-10T05:47:16.118Z,-0.10
2017-12-10T05:49:45.747Z,-0.10
2017-12-10T05:52:15.381Z,-0.10
2017-12-10T05:54:44.458Z,-0.10
2017-12-10T05:57:12.610Z,-0.10
2017-12-10T05:59:41.056Z,-0.10
2017-12-10T06:02:11.187Z,-0.10
2017-12-10T06:04:39.819Z,0.00
2017-12-10T06:07:08.207Z,0.00
2017-12-10T06:09:36.890Z,-0.10
2017-12-10T06:12:05.062Z,0.00
2017-12-10T06:14:33.211Z,0.00
2017-12-10T06:17:01.451Z,0.00
2017-12-10T06:19:29.607Z,0.00
2017-12-10T06:21:58.532Z,0.00
2017-12-10T06:24:27.920Z,0.00
2017-12-10T06:26:56.261Z,0.00
2017-12-10T06:29:25.281Z,0.00
2017-12-10T06:31:54.250Z,0.00
2017-12-10T06:34:22.555Z,0.00
2017-12-10T06:36:50.721Z,0.10
2017-12-10T06:39:19.484Z,0.10
2017-12-10T06:41:47.656Z,0.10
2017-12-10T06:44:15.808Z,0.10
2017-12-10T06:46:45.024Z,0.00
2017-12-10T06:49:13.485Z,0.00
2017-12-10T06:51:42.393Z,-0.10
2017-12-10T06:54:11.014Z,-0.20
2017-12-10T06:56:44.420Z,-0.30
2017-12-10T06:59:14.190Z,-0.30
2017-12-10T07:01:42.349Z,-0.40
2017-12-10T07:04:10.539Z,-0.50
2017-12-10T07:06:38.680Z,-0.60
2017-12-10T07:09:06.852Z,-0.60
2017-12-10T07:11:36.025Z,-0.60
2017-12-10T07:14:04.934Z,-0.70
2017-12-10T07:16:33.233Z,-0.70
2017-12-10T07:19:02.268Z,-0.70
2017-12-10T07:21:30.454Z,-0.90
2017-12-10T07:23:59.407Z,-1.10
2017-12-10T07:26:27.579Z,-1.10
2017-12-10T07:28:55.733Z,-1.10
2017-12-10T07:31:23.890Z,-1.10
2017-12-10T07:33:52.045Z,-1.10
2017-12-10T07:36:21.262Z,-1.00
2017-12-10T07:38:49.415Z,-1.00
2017-12-10T07:41:19.693Z,-0.80
2017-12-10T07:43:47.906Z,-0.70
2017-12-10T07:46:16.201Z,-0.60
2017-12-10T07:48:44.372Z,-0.50
2017-12-10T07:51:12.530Z,-0.50
2017-12-10T07:53:41.459Z,-0.30
2017-12-10T07:56:09.775Z,-0.40
2017-12-10T07:58:37.937Z,-0.20
2017-12-10T08:01:06.112Z,-0.20
2017-12-10T08:03:34.267Z,-0.30
2017-12-10T08:06:02.425Z,-0.30
2017-12-10T08:08:30.577Z,-0.20
2017-12-10T08:10:58.970Z,-0.20
2017-12-10T08:13:27.112Z,-0.30
2017-12-10T08:15:55.289Z,-0.30
2017-12-10T08:18:24.194Z,-0.20
2017-12-10T08:20:53.178Z,-0.20
2017-12-10T08:23:21.685Z,-0.10
2017-12-10T08:25:49.829Z,0.00
2017-12-10T08:28:18.329Z,0.00
2017-12-10T08:30:46.486Z,0.10
2017-12-10T08:33:17.658Z,0.30
2017-12-10T08:35:45.810Z,0.30
2017-12-10T08:38:14.907Z,0.50
2017-12-10T08:40:43.901Z,0.80
2017-12-10T08:43:13.414Z,0.90
2017-12-10T08:45:41.565Z,0.90
2017-12-10T08:48:09.704Z,1.00
2017-12-10T08:50:37.923Z,1.10
2017-12-10T08:53:06.278Z,1.20
2017-12-10T08:55:35.398Z,1.30
2017-12-10T08:58:05.235Z,1.30
2017-12-10T09:00:33.704Z,1.20
2017-12-10T09:03:01.966Z,1.10
2017-12-10T09:05:31.090Z,1.20
2017-12-10T09:07:59.350Z,1.20
2017-12-10T09:10:27.578Z,1.30
2017-12-10T09:12:55.723Z,1.10
2017-12-10T09:15:23.886Z,1.10
2017-12-10T09:17:54.100Z,0.90
2017-12-10T09:20:22.256Z,0.80
2017-12-10T09:22:51.184Z,0.80
2017-12-10T09:25:19.347Z,0.80
2017-12-10T09:27:47.630Z,0.80
2017-12-10T09:30:16.757Z,0.70
2017-12-10T09:32:45.959Z,0.60
2017-12-10T09:35:14.127Z,0.70
2017-12-10T09:37:42.352Z,0.60
2017-12-10T09:40:10.527Z,0.30
2017-12-10T09:42:38.703Z,0.30
2017-12-10T09:45:06.862Z,0.30
2017-12-10T09:47:35.929Z,0.00
2017-12-10T09:50:04.841Z,0.00
2017-12-10T09:52:33.007Z,0.00
2017-12-10T09:55:01.897Z,0.00
2017-12-10T09:57:32.083Z,0.00
2017-12-10T10:00:00.266Z,-0.20
2017-12-10T10:02:28.433Z,-0.30
2017-12-10T10:04:56.621Z,-0.20
2017-12-10T10:07:25.651Z,-0.30
2017-12-10T10:09:54.581Z,-0.50
2017-12-10T10:12:22.753Z,-0.50
2017-12-10T10:14:50.909Z,-0.60
2017-12-10T10:17:21.284Z,-0.50
2017-12-10T10:19:49.443Z,-0.30
2017-12-10T10:22:17.594Z,-0.20
2017-12-10T10:24:45.762Z,-0.20
2017-12-10T10:27:14.049Z,-0.10
2017-12-10T10:29:42.220Z,-0.30
2017-12-10T10:32:10.378Z,-0.40
2017-12-10T10:34:38.536Z,-0.50
2017-12-10T10:37:08.149Z,-0.50
2017-12-10T10:39:37.071Z,-0.40
2017-12-10T10:42:05.246Z,-0.40
2017-12-10T10:44:33.413Z,-0.60
2017-12-10T10:47:01.698Z,-0.70
2017-12-10T10:49:29.863Z,-0.60
2017-12-10T10:51:58.030Z,-0.70
2017-12-10T10:54:26.194Z,-0.60
2017-12-10T10:56:55.466Z,-0.60
2017-12-10T10:59:23.636Z,-0.50
2017-12-10T11:01:51.802Z,-0.40
2017-12-10T11:04:19.968Z,-0.30
2017-12-10T11:06:48.137Z,-0.30
2017-12-10T11:09:16.566Z,-0.30
2017-12-10T11:11:44.794Z,-0.30
2017-12-10T11:14:12.962Z,-0.40
2017-12-10T11:16:41.229Z,-0.30
2017-12-10T11:19:09.444Z,-0.30
2017-12-10T11:21:37.590Z,-0.30
2017-12-10T11:24:05.727Z,-0.20
2017-12-10T11:26:33.982Z,-0.30
2017-12-10T11:29:02.906Z,-0.30
2017-12-10T11:31:32.010Z,-0.30
2017-12-10T11:34:00.178Z,-0.10
2017-12-10T11:36:29.274Z,0.10
2017-12-10T11:38:57.653Z,0.10
2017-12-10T11:41:25.830Z,0.10
2017-12-10T11:43:54.659Z,0.20
2017-12-10T11:46:22.811Z,0.20
2017-12-10T11:48:50.990Z,0.30
2017-12-10T11:51:19.138Z,0.30
2017-12-10T11:53:47.305Z,0.40
2017-12-10T11:56:16.516Z,0.40
2017-12-10T11:58:44.653Z,0.50
2017-12-10T12:01:13.606Z,0.70
2017-12-10T12:03:41.754Z,0.70
2017-12-10T12:06:13.090Z,0.80
2017-12-10T12:08:45.316Z,0.70
2017-12-10T12:11:13.480Z,0.70
2017-12-10T12:13:42.059Z,0.70
2017-12-10T12:16:13.562Z,0.90
2017-12-10T12:18:41.826Z,1.00
2017-12-10T12:21:09.984Z,0.90
2017-12-10T12:23:38.912Z,1.20
2017-12-10T12:26:07.060Z,1.10
2017-12-10T12:28:35.229Z,1.30
2017-12-10T12:31:04.185Z,1.60
2017-12-10T12:33:32.327Z,1.60
2017-12-10T12:36:00.477Z,1.80
2017-12-10T12:38:30.326Z,1.90
2017-12-10T12:40:58.775Z,1.90
2017-12-10T12:43:26.977Z,2.00
2017-12-10T12:45:55.141Z,2.00
2017-12-10T12:48:23.315Z,2.20
2017-12-10T12:50:51.490Z,2.30
2017-12-10T12:53:19.643Z,2.40
2017-12-10T12:55:48.646Z,2.30
2017-12-10T12:58:16.805Z,2.30
2017-12-10T13:00:46.455Z,2.30
2017-12-10T13:03:14.594Z,2.30
2017-12-10T13:05:43.596Z,2.40
2017-12-10T13:08:13.227Z,2.40
2017-12-10T13:10:41.380Z,2.40
2017-12-10T13:13:10.467Z,2.50
2017-12-10T13:15:39.391Z,2.50
2017-12-10T13:18:07.543Z,2.50
2017-12-10T13:20:35.700Z,2.40
2017-12-10T13:23:03.860Z,2.40
2017-12-10T13:25:32.791Z,2.40
2017-12-10T13:28:02.022Z,2.40
2017-12-10T13:30:30.172Z,2.40
2017-12-10T13:32:58.330Z,2.50
2017-12-10T13:35:26.486Z,2.60
2017-12-10T13:37:55.484Z,2.70
2017-12-10T13:40:23.672Z,2.70
2017-12-10T13:42:51.852Z,2.80
2017-12-10T13:45:20.963Z,2.80
2017-12-10T13:47:49.236Z,2.90
2017-12-10T13:50:18.266Z,3.00
2017-12-10T13:52:53.200Z,2.90
2017-12-10T13:55:21.378Z,2.90
2017-12-10T13:57:54.820Z,3.00
2017-12-10T14:00:24.988Z,3.10
2017-12-10T14:02:54.226Z,3.00
2017-12-10T14:05:22.448Z,3.00
2017-12-10T14:07:50.599Z,3.10
2017-12-10T14:10:18.758Z,3.10
2017-12-10T14:12:55.048Z,3.10
2017-12-10T14:15:23.212Z,3.10
2017-12-10T14:17:52.443Z,3.10
2017-12-10T14:20:20.615Z,3.10
2017-12-10T14:22:50.322Z,3.10
2017-12-10T14:25:19.272Z,3.20
2017-12-10T14:27:47.442Z,3.20
2017-12-10T14:30:15.620Z,3.10
2017-12-10T14:32:46.536Z,3.10
2017-12-10T14:35:15.691Z,3.20
2017-12-10T14:37:43.886Z,3.20
2017-12-10T14:40:12.951Z,3.20
2017-12-10T14:42:41.107Z,3.20
2017-12-10T14:47:51.055Z,3.30
2017-12-10T14:50:19.271Z,3.30
2017-12-10T14:52:47.509Z,3.40
2017-12-10T14:55:15.681Z,3.50
2017-12-10T14:57:44.903Z,3.50
2017-12-10T15:00:14.023Z,3.50
2017-12-10T15:05:21.660Z,3.50
2017-12-10T15:07:49.823Z,3.60
2017-12-10T15:10:19.288Z,3.60
2017-12-10T15:12:50.416Z,3.60
2017-12-10T15:15:19.816Z,3.60
2017-12-10T15:17:48.004Z,3.60
2017-12-10T15:20:19.231Z,3.60
2017-12-10T15:22:48.172Z,3.60
2017-12-10T15:25:17.312Z,3.60
2017-12-10T15:27:47.928Z,3.70
2017-12-10T15:30:16.693Z,3.70
2017-12-10T15:32:45.781Z,3.80
2017-12-10T15:35:17.512Z,3.70
2017-12-10T15:37:45.692Z,3.70
2017-12-10T15:40:15.735Z,3.70
2017-12-10T15:42:52.767Z,3.80
2017-12-10T15:45:25.845Z,3.80
2017-12-10T15:47:54.137Z,3.80
2017-12-10T15:50:23.239Z,3.80
2017-12-10T15:52:52.290Z,3.90
2017-12-10T15:55:20.449Z,3.80
2017-12-10T15:57:53.391Z,3.90
2017-12-10T16:00:21.666Z,4.00
2017-12-10T16:02:49.836Z,4.00
2017-12-10T16:05:18.221Z,4.00
2017-12-10T16:07:46.489Z,4.00
2017-12-10T16:10:14.649Z,4.00
2017-12-10T16:12:43.584Z,4.00
2017-12-10T16:15:11.742Z,4.00
2017-12-10T16:17:40.016Z,4.00
2017-12-10T16:20:08.159Z,4.00
2017-12-10T16:22:37.104Z,4.10
2017-12-10T16:25:05.261Z,4.10
2017-12-10T16:27:33.576Z,4.10
2017-12-10T16:30:01.734Z,4.10
2017-12-10T16:32:31.244Z,4.10
2017-12-10T16:34:59.381Z,4.10
2017-12-10T16:37:27.639Z,4.20
2017-12-10T16:39:56.588Z,4.10
2017-12-10T16:42:25.373Z,4.10
2017-12-10T16:44:53.532Z,4.20
2017-12-10T16:47:26.194Z,4.20
2017-12-10T16:50:00.165Z,4.30
2017-12-10T16:52:29.261Z,4.30
2017-12-10T16:54:58.267Z,4.30
2017-12-10T16:57:27.562Z,4.30
2017-12-10T16:59:55.742Z,4.30
2017-12-10T17:02:26.969Z,4.20
2017-12-10T17:04:55.591Z,4.20
2017-12-10T17:07:23.776Z,4.20
2017-12-10T17:09:51.914Z,4.20
2017-12-10T17:12:20.870Z,4.20
2017-12-10T17:14:49.024Z,4.20
2017-12-10T17:17:17.762Z,4.30
2017-12-10T17:19:45.910Z,4.40
2017-12-10T17:22:14.906Z,4.40
2017-12-10T17:24:43.071Z,4.40
2017-12-10T17:27:11.267Z,4.40
2017-12-10T17:29:39.441Z,4.50
2017-12-10T17:32:07.598Z,4.60
2017-12-10T17:34:35.764Z,4.70
2017-12-10T17:37:03.933Z,4.70
2017-12-10T17:39:32.093Z,4.70
2017-12-10T17:42:00.249Z,4.70
2017-12-10T17:44:28.429Z,4.80
2017-12-10T17:46:56.601Z,4.80
2017-12-10T17:49:24.771Z,4.90
2017-12-10T17:51:52.931Z,4.90
2017-12-10T17:54:21.094Z,5.00
2017-12-10T17:56:50.389Z,4.90
2017-12-10T17:59:18.595Z,4.90
2017-12-10T18:01:46.760Z,5.00
2017-12-10T18:04:15.716Z,5.00
2017-12-10T18:06:43.886Z,5.00
2017-12-10T18:09:12.108Z,5.10
2017-12-10T18:11:40.437Z,5.10
2017-12-10T18:14:08.682Z,5.20
2017-12-10T18:16:36.949Z,5.30
2017-12-10T18:19:05.110Z,5.20
2017-12-10T18:21:33.266Z,5.20
2017-12-10T18:24:01.418Z,5.30
2017-12-10T18:26:29.623Z,5.40
2017-12-10T18:28:57.766Z,5.40
2017-12-10T18:31:26.260Z,5.40
2017-12-10T18:33:55.283Z,5.40
2017-12-10T18:36:23.562Z,5.40
2017-12-10T18:38:51.741Z,5.50
2017-12-10T18:41:19.906Z,5.40
2017-12-10T18:43:48.066Z,5.40
2017-12-10T18:46:17.073Z,5.40
2017-12-10T18:48:45.265Z,5.40
2017-12-10T18:51:13.416Z,5.50
2017-12-10T18:53:43.655Z,5.50
2017-12-10T18:56:13.634Z,5.40
2017-12-10T18:58:42.313Z,5.40
2017-12-10T19:01:10.500Z,5.40
2017-12-10T19:03:38.708Z,5.40
2017-12-10T19:06:06.972Z,5.40
2017-12-10T19:08:35.136Z,5.40
2017-12-10T19:11:03.277Z,5.50
2017-12-10T19:13:31.429Z,5.50
2017-12-10T19:15:59.572Z,5.60
2017-12-10T19:18:27.740Z,5.60
2017-12-10T19:20:55.903Z,5.70
2017-12-10T19:23:28.500Z,5.50
2017-12-10T19:25:56.720Z,5.50
2017-12-10T19:28:24.877Z,5.50
2017-12-10T19:30:53.036Z,5.50
2017-12-10T19:33:22.143Z,5.50
2017-12-10T19:35:50.315Z,5.50
2017-12-10T19:38:18.476Z,5.50
2017-12-10T19:40:47.239Z,5.60
2017-12-10T19:43:16.166Z,5.80
2017-12-10T19:45:44.336Z,5.80
2017-12-10T19:48:12.578Z,5.90
2017-12-10T19:50:41.505Z,5.80
2017-12-10T19:53:09.656Z,5.80
2017-12-10T19:55:37.814Z,5.80
2017-12-10T19:58:07.471Z,5.80
2017-12-10T20:00:35.919Z,5.80
2017-12-10T20:03:04.115Z,5.70
2017-12-10T20:05:32.274Z,5.70
2017-12-10T20:08:04.562Z,5.60
2017-12-10T20:10:32.827Z,5.60
2017-12-10T20:13:00.985Z,5.60
2017-12-10T20:15:29.143Z,5.60
2017-12-10T20:17:58.157Z,5.50
2017-12-10T20:20:31.004Z,5.50
2017-12-10T20:23:00.851Z,5.50
2017-12-10T20:25:30.540Z,5.50
2017-12-10T20:28:02.428Z,5.50
2017-12-10T20:30:31.430Z,5.60
2017-12-10T20:32:59.611Z,5.50
2017-12-10T20:35:27.773Z,5.50
2017-12-10T20:37:59.312Z,5.60
2017-12-10T20:40:28.398Z,5.60
2017-12-10T20:42:56.541Z,5.70
2017-12-10T20:45:24.683Z,5.80
2017-12-10T20:47:52.834Z,5.80
2017-12-10T20:50:20.991Z,5.70
2017-12-10T20:52:49.169Z,5.70
2017-12-10T20:55:17.326Z,5.70
2017-12-10T20:57:45.554Z,5.70
2017-12-10T21:00:15.457Z,5.70
2017-12-10T21:02:43.629Z,5.70
2017-12-10T21:05:12.660Z,5.70
2017-12-10T21:07:41.921Z,5.70
2017-12-10T21:10:10.081Z,5.70
2017-12-10T21:12:38.239Z,5.70
2017-12-10T21:15:07.740Z,5.80
2017-12-10T21:17:43.742Z,5.70
2017-12-10T21:20:11.906Z,5.70
2017-12-10T21:22:40.051Z,5.70
2017-12-10T21:25:08.972Z,5.70
2017-12-10T21:27:37.182Z,5.70
2017-12-10T21:30:06.003Z,5.70
2017-12-10T21:32:35.756Z,5.70
2017-12-10T21:35:03.936Z,5.60
2017-12-10T21:37:33.118Z,5.60
2017-12-10T21:40:01.310Z,5.60
2017-12-10T21:42:29.454Z,5.60
2017-12-10T21:44:57.609Z,5.60
2017-12-10T21:47:28.259Z,5.60
2017-12-10T21:49:57.169Z,5.60
2017-12-10T21:52:25.325Z,5.60
2017-12-10T21:54:54.239Z,5.50
2017-12-10T21:57:22.391Z,5.50
2017-12-10T21:59:50.536Z,5.50
2017-12-10T22:02:18.694Z,5.50
2017-12-10T22:04:47.716Z,5.40
2017-12-10T22:07:17.520Z,5.50
2017-12-10T22:09:45.694Z,5.50
2017-12-10T22:12:14.607Z,5.60
2017-12-10T22:14:42.749Z,5.60
2017-12-10T22:17:10.958Z,5.60
2017-12-10T22:19:40.070Z,5.60
2017-12-10T22:22:08.225Z,5.70
2017-12-10T22:24:36.362Z,5.70
2017-12-10T22:27:04.565Z,5.70
2017-12-10T22:29:32.709Z,5.70
2017-12-10T22:32:00.857Z,5.60
2017-12-10T22:34:29.004Z,5.60
2017-12-10T22:36:57.317Z,5.50
2017-12-10T22:39:25.965Z,5.50
2017-12-10T22:41:54.133Z,5.50
2017-12-10T22:44:22.270Z,5.40
2017-12-10T22:46:54.843Z,5.40
2017-12-10T22:49:23.001Z,5.30
2017-12-10T22:51:51.152Z,5.30
2017-12-10T22:54:19.365Z,5.30
2017-12-10T22:56:47.572Z,5.20
2017-12-10T22:59:15.725Z,5.20
2017-12-10T23:01:44.729Z,5.10
2017-12-10T23:04:12.877Z,5.10
2017-12-10T23:06:41.094Z,5.10
2017-12-10T23:09:09.252Z,5.10
2017-12-10T23:11:38.168Z,5.10
2017-12-10T23:14:06.312Z,5.10
2017-12-10T23:16:34.448Z,5.10
2017-12-10T23:19:02.887Z,5.10
2017-12-10T23:21:31.032Z,5.10
2017-12-10T23:23:59.196Z,5.10
2017-12-10T23:26:27.926Z,5.10
2017-12-10T23:28:56.080Z,5.10
2017-12-10T23:31:24.994Z,5.20
2017-12-10T23:33:53.140Z,5.20
2017-12-10T23:36:21.336Z,5.20
2017-12-10T23:38:50.187Z,5.20
2017-12-10T23:41:18.926Z,5.20
2017-12-10T23:43:47.084Z,5.20
2017-12-10T23:46:15.358Z,5.30
2017-12-10T23:48:43.533Z,5.30
2017-12-10T23:51:11.687Z,5.30
2017-12-10T23:53:39.884Z,5.30
2017-12-10T23:56:08.054Z,5.30
2017-12-10T23:58:36.200Z,5.40
